Página principal
METAR-TAF:

METAR-TAF

Aeroportos :

Aeroporto Internacional de Kansas City

Kansas City, Missouri, Estados Unidos

latitude: 39-17-50N, longitude: 094-43-50W, altura: 312 m

Observação actual do tempo

O boletim foi feito há 1 hora e 1 minutos, às 23:53 UTC
Vento 6 kt de su-sudoeste
Temperatura 4°C
Humidade 60%
Pressão 1015 hPa
Visibilidade: 16.1 km
Céu limpo

METAR: KMCI 152353Z 20006KT 10SM CLR 04/M03 A2996 RMK AO2 SLP155 T00391028 10100 20039 50006

Hora: 18:54 (00:54 UTC)

Previsão

O boletim foi feito há 1 hora e 20 minutos, às 23:34 UTC
Previsão válida de 16 às 00 UTC a 16 às 24 UTC
Vento 5 kt de oes-sudoeste
Visibilidade: 10 km
Céu limpo
A partir de 16 às 0600 UTC
Vento 7 kt de oes-noroeste
Visibilidade: 10 km
Céu limpo
A partir de 16 às 1300 UTC
Vento 5 kt com direcção variável
Visibilidade: 10 km
Poucas nuvensa uma altura de 25000 ft

TAF: KMCI 152334Z 1600/1624 24005KT P6SM SKC FM160600 30007KT P6SM SKC WS020/34035KT FM161300 VRB05KT P6SM FEW250

Observações e previsões do tempo de mais de 4000 aeroportos (mensagens METAR e TAF).

As estações disponíveis são os pontos amarelos e vermelhos sobre o mapa.

Mova o rato sobre o mapa para ver o nome da estação.

Depois clique no ponto para visualizar as observações e previsões meteorológicas.

Para alterar o mapa : clique nos botões verdes com uma cruz preta para aumentar o zoom; no botão verde com uma pitada de zoom; ou nas setas verdes para mapas adjacentes.


METAR-TAF: